Time;durP1;ratioP1;P1;durP2;ratioP2;P2;SDS_P1;SDS_P2;PMS_P1;PMS_P2;Temp;Humidity;BMP_temperature;BMP_pressure;BME280_temperature;BME280_humidity;BME280_pressure;Samples;Min_cycle;Max_cycle;Signal;HPM_P1;HPM_P2
2021/07/13 00:01:56;;;;;;;7.50;6.15;;;;;;;21.61;79.59;99638.34;5072760;28;20524;-76
2021/07/13 00:04:21;;;;;;;8.33;6.53;;;;;;;21.60;79.32;99637.53;5054920;28;20479;-77
2021/07/13 00:06:47;;;;;;;8.23;6.27;;;;;;;21.60;78.90;99647.78;5072061;28;20890;-77
2021/07/13 00:09:13;;;;;;;7.07;6.35;;;;;;;21.59;78.85;99652.47;5054798;28;20384;-77
2021/07/13 00:11:38;;;;;;;7.93;7.03;;;;;;;21.61;79.14;99654.88;5071797;28;20773;-77
2021/07/13 00:14:05;;;;;;;10.02;6.88;;;;;;;21.60;79.12;99656.03;5072506;28;20384;-77
2021/07/13 00:16:32;;;;;;;9.13;6.78;;;;;;;21.59;79.51;99657.19;5072232;28;20423;-76
2021/07/13 00:18:57;;;;;;;7.38;6.53;;;;;;;21.56;79.89;99642.13;5071870;28;20416;-77
2021/07/13 00:21:22;;;;;;;9.43;6.97;;;;;;;21.54;80.32;99644.38;5072177;28;20384;-77
2021/07/13 00:23:48;;;;;;;10.47;7.30;;;;;;;21.52;80.33;99634.84;5054496;28;20399;-77
2021/07/13 00:26:15;;;;;;;10.43;7.20;;;;;;;21.52;80.58;99632.09;5070963;28;20747;-77
2021/07/13 00:28:41;;;;;;;7.75;7.00;;;;;;;21.50;80.69;99628.88;5071887;28;20407;-76
2021/07/13 00:31:06;;;;;;;8.60;7.27;;;;;;;21.49;80.47;99628.06;5071588;28;20387;-77
2021/07/13 00:33:31;;;;;;;8.13;7.37;;;;;;;21.49;80.40;99635.53;5053951;28;20431;-76
2021/07/13 00:35:57;;;;;;;8.03;7.23;;;;;;;21.49;80.24;99632.78;5071609;28;20401;-77
2021/07/13 00:38:22;;;;;;;7.63;7.03;;;;;;;21.48;80.11;99631.97;5053957;28;20388;-76
2021/07/13 00:40:47;;;;;;;8.77;7.97;;;;;;;21.50;79.76;99635.19;5071179;28;20416;-76
2021/07/13 00:43:12;;;;;;;7.80;7.10;;;;;;;21.50;79.82;99637.97;5070695;28;20986;-77
2021/07/13 00:45:38;;;;;;;7.68;6.93;;;;;;;21.50;79.93;99631.63;5071915;28;20483;-76
2021/07/13 00:48:05;;;;;;;8.00;7.23;;;;;;;21.49;80.17;99628.06;5071730;28;20743;-76
2021/07/13 00:50:30;;;;;;;7.57;6.90;;;;;;;21.47;80.34;99624.03;5071809;28;20384;-77
2021/07/13 00:52:58;;;;;;;7.83;7.03;;;;;;;21.44;80.19;99606.19;5071386;28;20396;-76
2021/07/13 00:55:24;;;;;;;7.90;7.30;;;;;;;21.44;80.17;99597.16;5071680;28;20855;-77
2021/07/13 00:57:49;;;;;;;7.90;7.00;;;;;;;21.43;80.21;99603.81;5071751;28;20376;-76
2021/07/13 01:00:17;;;;;;;7.30;6.57;;;;;;;21.45;80.20;99599.56;5053388;28;20403;-76
2021/07/13 01:02:46;;;;;;;9.50;7.25;;;;;;;21.44;80.17;99594.41;5071415;28;20754;-76
2021/07/13 01:05:16;;;;;;;7.53;7.03;;;;;;;21.39;80.21;99600.09;5071302;28;20403;-76
2021/07/13 01:07:50;;;;;;;8.13;7.32;;;;;;;21.36;80.30;99607.09;5071034;28;20420;-77
2021/07/13 01:10:27;;;;;;;7.47;6.88;;;;;;;21.34;80.32;99598.34;5070772;28;20399;-76
2021/07/13 01:13:05;;;;;;;8.75;7.53;;;;;;;21.31;80.42;99600.97;5050863;28;20392;-77
2021/07/13 01:15:38;;;;;;;14.30;12.20;;;;;;;21.29;80.54;99606.00;5071238;28;20494;-76
2021/07/13 01:18:12;;;;;;;30.85;27.63;;;;;;;21.25;80.66;99616.09;5071406;28;20410;-76
2021/07/13 01:21:06;;;;;;;18.60;12.70;;;;;;;21.26;80.52;99624.03;5071559;28;20836;-76
2021/07/13 01:23:42;;;;;;;9.63;8.38;;;;;;;21.28;80.55;99638.28;5071181;28;20415;-76
2021/07/13 01:26:42;;;;;;;10.27;9.00;;;;;;;21.31;80.18;99647.81;5070489;28;20411;-77
2021/07/13 01:29:11;;;;;;;12.23;10.18;;;;;;;21.33;79.99;99653.81;5028034;28;20474;-76
2021/07/13 01:31:39;;;;;;;10.57;9.25;;;;;;;21.35;80.04;99663.34;5050705;28;20401;-76
2021/07/13 01:34:14;;;;;;;9.32;8.52;;;;;;;21.36;79.97;99662.22;5063024;28;20431;-76
2021/07/13 01:36:44;;;;;;;10.00;8.98;;;;;;;21.37;80.21;99643.75;5071276;28;20398;-76
2021/07/13 01:39:11;;;;;;;10.02;8.57;;;;;;;21.36;80.19;99625.59;5070632;28;20415;-77
2021/07/13 01:41:38;;;;;;;12.30;7.83;;;;;;;21.33;80.21;99627.06;5053219;28;20901;-76
2021/07/13 01:44:05;;;;;;;14.65;10.65;;;;;;;21.30;80.39;99627.75;5069731;28;20411;-77
2021/07/13 01:46:32;;;;;;;12.23;9.52;;;;;;;21.29;80.49;99628.06;5071333;28;20887;-76
2021/07/13 01:48:59;;;;;;;10.88;9.13;;;;;;;21.30;80.74;99641.53;5070380;28;20875;-76
2021/07/13 01:51:27;;;;;;;10.00;8.23;;;;;;;21.31;80.31;99650.56;5069988;28;20415;-76
2021/07/13 01:53:54;;;;;;;9.70;8.80;;;;;;;21.27;80.56;99653.22;5069615;28;20473;-76
2021/07/13 01:56:20;;;;;;;9.68;8.77;;;;;;;21.29;80.32;99653.69;5071112;28;20402;-76
2021/07/13 01:58:46;;;;;;;9.60;8.73;;;;;;;21.31;80.56;99656.06;5069971;28;20423;-76
2021/07/13 02:01:18;;;;;;;10.23;9.20;;;;;;;21.33;80.53;99665.66;5052574;28;20399;-76
2021/07/13 02:03:44;;;;;;;12.32;9.23;;;;;;;21.33;80.37;99665.66;5051622;28;20403;-77
2021/07/13 02:06:12;;;;;;;11.20;9.30;;;;;;;21.33;80.64;99673.09;5070291;28;20415;-76
2021/07/13 02:08:38;;;;;;;9.50;8.52;;;;;;;21.34;80.37;99667.25;5052654;28;20906;-77
2021/07/13 02:11:09;;;;;;;10.13;8.73;;;;;;;21.33;80.64;99654.63;5050748;28;20408;-76
2021/07/13 02:13:35;;;;;;;9.65;8.70;;;;;;;21.32;80.73;99652.19;5065449;28;20408;-77
2021/07/13 02:16:00;;;;;;;10.33;9.23;;;;;;;21.30;80.74;99654.50;5070456;28;20399;-76
2021/07/13 02:18:26;;;;;;;11.77;8.85;;;;;;;21.29;80.50;99656.44;5070583;28;20411;-77
2021/07/13 02:20:52;;;;;;;12.48;9.05;;;;;;;21.31;80.63;99645.06;5051346;28;20418;-77
2021/07/13 02:23:18;;;;;;;12.20;9.20;;;;;;;21.29;80.83;99634.38;5035781;28;20736;-76
2021/07/13 02:25:45;;;;;;;11.63;9.00;;;;;;;21.27;81.14;99620.16;5070447;28;20457;-76
2021/07/13 02:28:18;;;;;;;10.15;9.25;;;;;;;21.24;81.44;99611.75;5069793;28;20431;-76
2021/07/13 02:30:51;;;;;;;12.23;8.90;;;;;;;21.24;81.60;99603.47;5061482;28;20817;-77
2021/07/13 02:33:23;;;;;;;9.95;9.05;;;;;;;21.25;81.49;99605.88;5061918;28;20763;-77
2021/07/13 02:35:54;;;;;;;10.32;9.32;;;;;;;21.25;81.19;99610.56;5069490;28;20748;-77
2021/07/13 02:38:20;;;;;;;9.13;8.20;;;;;;;21.24;81.30;99606.22;5062654;28;20407;-77
2021/07/13 02:40:47;;;;;;;8.88;8.15;;;;;;;21.23;81.43;99607.38;5069725;28;20870;-77
2021/07/13 02:43:13;;;;;;;8.93;8.00;;;;;;;21.23;81.34;99605.41;5070010;28;20392;-76
2021/07/13 02:45:40;;;;;;;9.88;8.50;;;;;;;21.20;81.21;99606.09;5073333;28;20938;-76
2021/07/13 02:48:07;;;;;;;8.85;8.10;;;;;;;21.19;81.15;99597.00;5073643;28;20867;-76
2021/07/13 02:50:33;;;;;;;8.43;7.70;;;;;;;21.18;81.11;99589.88;5072870;28;20435;-76
2021/07/13 02:53:01;;;;;;;8.52;7.82;;;;;;;21.19;81.10;99586.00;5073510;28;20984;-76
2021/07/13 02:55:29;;;;;;;8.35;7.65;;;;;;;21.19;81.07;99587.94;5073882;28;20866;-76
2021/07/13 02:57:57;;;;;;;9.40;8.70;;;;;;;21.19;81.02;99591.50;5054673;28;20905;-77
2021/07/13 03:00:22;;;;;;;11.00;9.87;;;;;;;21.18;80.74;99598.16;5067811;28;20409;-76
2021/07/13 03:02:49;;;;;;;10.93;9.77;;;;;;;21.20;80.34;99597.81;5071596;28;20482;-76
2021/07/13 03:05:24;;;;;;;9.65;8.82;;;;;;;21.19;80.51;99599.78;5072044;28;20486;-76
2021/07/13 03:07:50;;;;;;;9.57;8.77;;;;;;;21.19;80.74;99587.94;5072347;28;20427;-76
2021/07/13 03:10:25;;;;;;;10.02;9.13;;;;;;;21.17;81.00;99577.25;5054423;28;20449;-76
2021/07/13 03:12:55;;;;;;;9.77;8.80;;;;;;;21.16;80.69;99569.31;5073222;28;20890;-76
2021/07/13 03:15:22;;;;;;;10.03;9.23;;;;;;;21.15;81.19;99556.69;5073404;28;20396;-77
2021/07/13 03:17:48;;;;;;;10.25;9.35;;;;;;;21.12;81.24;99536.13;5072849;28;20758;-76
2021/07/13 03:20:14;;;;;;;10.90;9.80;;;;;;;21.10;81.43;99530.16;5072816;28;20399;-77
2021/07/13 03:22:42;;;;;;;9.93;8.80;;;;;;;21.10;81.56;99515.56;5070105;28;20542;-76
2021/07/13 03:25:12;;;;;;;11.73;9.52;;;;;;;21.10;81.39;99502.63;5050881;28;20454;-76
2021/07/13 03:27:37;;;;;;;10.52;9.63;;;;;;;21.07;81.68;99483.16;5071735;28;20392;-76
2021/07/13 03:30:04;;;;;;;10.48;9.68;;;;;;;21.02;82.06;99478.66;5048987;28;20894;-76
2021/07/13 03:32:31;;;;;;;11.05;10.05;;;;;;;21.00;81.99;99478.19;5072326;28;20392;-76
2021/07/13 03:34:57;;;;;;;10.50;9.50;;;;;;;20.99;81.96;99478.53;5055149;28;20403;-76
2021/07/13 03:37:23;;;;;;;9.73;8.93;;;;;;;21.00;81.87;99480.13;5072676;28;20404;-76
2021/07/13 03:39:50;;;;;;;10.23;9.15;;;;;;;21.00;81.78;99477.38;5072889;28;20871;-76
2021/07/13 03:42:18;;;;;;;9.63;8.83;;;;;;;20.98;81.51;99491.47;5072196;28;20442;-76
2021/07/13 03:44:44;;;;;;;8.35;7.55;;;;;;;20.98;81.44;99498.94;5069920;28;20422;-78
2021/07/13 03:47:14;;;;;;;9.25;8.50;;;;;;;20.98;81.24;99513.53;5071069;28;20408;-77
2021/07/13 03:49:39;;;;;;;11.73;10.70;;;;;;;21.00;81.28;99515.94;5035058;28;20412;-77
2021/07/13 03:52:06;;;;;;;10.25;9.38;;;;;;;20.99;81.19;99525.34;5069011;28;20396;-78
2021/07/13 03:54:31;;;;;;;13.07;11.03;;;;;;;20.98;81.33;99526.47;5070329;28;20403;-77
2021/07/13 03:56:56;;;;;;;10.20;9.15;;;;;;;20.98;81.33;99524.53;5072604;28;20549;-77
2021/07/13 03:59:22;;;;;;;10.27;9.27;;;;;;;21.01;81.17;99528.59;5069639;28;20411;-77
2021/07/13 04:01:47;;;;;;;10.13;9.23;;;;;;;21.00;81.16;99527.78;5049732;28;20401;-77
2021/07/13 04:04:13;;;;;;;11.27;10.05;;;;;;;20.97;81.18;99528.47;5068799;28;20797;-78
2021/07/13 04:06:38;;;;;;;9.93;8.93;;;;;;;20.97;81.31;99527.66;5072219;28;20407;-77
2021/07/13 04:09:06;;;;;;;9.90;9.10;;;;;;;20.93;81.49;99527.50;5072154;28;20395;-77
2021/07/13 04:11:31;;;;;;;10.05;9.07;;;;;;;20.92;81.02;99520.38;5071279;28;20415;-78
2021/07/13 04:13:57;;;;;;;11.37;10.27;;;;;;;20.92;81.24;99522.31;5071041;28;20442;-78
2021/07/13 04:16:22;;;;;;;10.13;9.23;;;;;;;20.95;81.09;99527.16;5069589;28;20402;-78
2021/07/13 04:18:47;;;;;;;12.43;11.23;;;;;;;20.91;81.31;99526.25;5071987;28;20415;-77
2021/07/13 04:21:13;;;;;;;12.53;11.37;;;;;;;20.88;81.47;99533.19;5070526;28;20399;-77
2021/07/13 04:23:38;;;;;;;12.57;11.37;;;;;;;20.86;81.44;99520.91;5071507;28;20486;-77
2021/07/13 04:26:05;;;;;;;13.80;12.37;;;;;;;20.85;81.48;99524.81;5070834;28;20418;-77
2021/07/13 04:28:31;;;;;;;14.67;13.37;;;;;;;20.86;81.51;99523.66;5069304;28;20482;-77
2021/07/13 04:30:58;;;;;;;12.70;11.48;;;;;;;20.80;81.43;99525.81;5049226;28;20492;-77
2021/07/13 04:33:24;;;;;;;11.98;11.07;;;;;;;20.78;81.77;99525.34;5064850;28;20407;-77
2021/07/13 04:35:49;;;;;;;12.20;11.10;;;;;;;20.76;81.62;99513.84;5067970;28;20418;-77
2021/07/13 04:38:14;;;;;;;13.43;10.30;;;;;;;20.75;81.78;99520.50;5052265;28;20402;-77
2021/07/13 04:40:39;;;;;;;12.43;10.90;;;;;;;20.72;81.77;99523.91;5070202;28;20450;-77
2021/07/13 04:43:05;;;;;;;11.60;10.50;;;;;;;20.74;81.82;99516.16;5047505;28;20409;-77
2021/07/13 04:45:30;;;;;;;10.70;9.80;;;;;;;20.76;81.59;99507.53;5049486;28;20452;-77
2021/07/13 04:47:56;;;;;;;10.03;9.20;;;;;;;20.77;81.51;99493.44;5071200;28;20426;-77
2021/07/13 04:50:21;;;;;;;10.00;9.20;;;;;;;20.76;81.63;99477.25;5069845;28;20533;-77
2021/07/13 04:52:46;;;;;;;9.83;9.00;;;;;;;20.74;81.70;99469.34;5071374;28;20552;-77
2021/07/13 04:55:13;;;;;;;9.87;9.07;;;;;;;20.77;81.56;99467.88;5071259;28;20388;-77
2021/07/13 04:57:38;;;;;;;10.07;9.13;;;;;;;20.80;81.51;99469.94;5049062;28;20764;-77
2021/07/13 05:00:06;;;;;;;10.23;9.35;;;;;;;20.83;81.54;99464.56;5067818;28;20419;-77
2021/07/13 05:02:31;;;;;;;10.38;9.40;;;;;;;20.87;81.44;99473.78;5066274;28;20412;-77
2021/07/13 05:04:56;;;;;;;10.20;9.40;;;;;;;20.87;81.44;99481.22;5053889;28;20408;-78
2021/07/13 05:07:23;;;;;;;9.43;8.63;;;;;;;20.86;81.33;99480.41;5065569;28;20425;-77
2021/07/13 05:09:48;;;;;;;10.40;9.38;;;;;;;20.86;81.52;99482.34;5060663;28;20408;-77
2021/07/13 05:12:14;;;;;;;10.97;10.00;;;;;;;20.82;81.44;99482.22;5070549;28;20395;-77
2021/07/13 05:14:39;;;;;;;8.67;7.87;;;;;;;20.85;81.40;99489.00;5052224;28;20397;-78
2021/07/13 05:17:04;;;;;;;8.87;8.07;;;;;;;20.90;81.32;99488.81;5066828;28;20424;-78
2021/07/13 05:19:34;;;;;;;9.00;8.33;;;;;;;20.90;81.18;99481.34;5068998;28;20411;-77
2021/07/13 05:22:05;;;;;;;9.33;8.60;;;;;;;20.90;81.13;99483.31;5070006;28;20408;-77
2021/07/13 05:24:30;;;;;;;8.77;8.02;;;;;;;20.93;80.98;99474.38;5068780;28;20867;-77
2021/07/13 05:26:55;;;;;;;8.30;7.70;;;;;;;20.95;80.88;99486.66;5070676;28;20388;-77
2021/07/13 05:29:21;;;;;;;8.93;8.33;;;;;;;20.95;80.80;99494.91;5070303;28;20914;-78
2021/07/13 05:31:46;;;;;;;8.23;7.43;;;;;;;20.95;80.70;99500.41;5070783;28;20395;-77
2021/07/13 05:34:12;;;;;;;7.70;7.10;;;;;;;20.94;80.87;99496.06;5051574;28;20945;-78
2021/07/13 05:36:37;;;;;;;7.43;7.03;;;;;;;20.94;80.98;99489.75;5067220;28;20404;-77
2021/07/13 05:39:06;;;;;;;8.93;8.23;;;;;;;20.96;81.02;99491.03;5049749;28;20416;-77
2021/07/13 05:41:32;;;;;;;8.57;7.88;;;;;;;20.99;81.10;99490.34;5068040;28;20428;-77
2021/07/13 05:44:00;;;;;;;8.23;7.70;;;;;;;20.98;80.92;99490.66;5067969;28;20432;-77
2021/07/13 05:46:25;;;;;;;7.28;6.78;;;;;;;20.94;81.08;99496.06;5048726;28;20499;-77
2021/07/13 05:48:51;;;;;;;7.83;7.23;;;;;;;20.89;80.96;99504.53;5070273;28;20482;-77
2021/07/13 05:51:16;;;;;;;7.63;7.05;;;;;;;20.87;81.15;99508.75;5068916;28;20399;-77
2021/07/13 05:53:42;;;;;;;6.97;6.37;;;;;;;20.86;81.09;99507.97;5069982;28;20403;-77
2021/07/13 05:56:08;;;;;;;7.90;7.10;;;;;;;20.87;81.17;99528.84;5044677;28;20969;-76
2021/07/13 05:58:34;;;;;;;7.93;7.18;;;;;;;20.88;81.14;99518.66;5070878;28;20490;-77
2021/07/13 06:01:00;;;;;;;7.53;6.93;;;;;;;20.91;81.31;99526.25;5069518;28;20510;-77
2021/07/13 06:03:25;;;;;;;8.00;7.20;;;;;;;20.91;81.22;99529.00;5062430;28;20487;-77
2021/07/13 06:05:50;;;;;;;7.77;7.03;;;;;;;20.89;81.11;99534.81;5070710;28;20425;-76
2021/07/13 06:08:15;;;;;;;7.80;7.10;;;;;;;20.87;81.11;99536.31;5070654;28;20404;-77
2021/07/13 06:10:41;;;;;;;8.07;7.37;;;;;;;20.87;81.15;99528.84;5070674;28;20466;-76
2021/07/13 06:13:06;;;;;;;8.07;7.37;;;;;;;20.88;81.28;99537.94;5070289;28;20407;-77
2021/07/13 06:15:31;;;;;;;7.90;7.20;;;;;;;20.88;81.42;99535.16;5066160;28;20403;-77
2021/07/13 06:17:56;;;;;;;8.03;7.47;;;;;;;20.87;81.06;99542.63;5070447;28;20413;-77
2021/07/13 06:20:22;;;;;;;9.13;8.27;;;;;;;20.87;81.19;99544.56;5073952;28;20443;-78
2021/07/13 06:22:47;;;;;;;7.93;7.23;;;;;;;20.80;81.43;99547.03;5074278;28;20396;-78
2021/07/13 06:25:13;;;;;;;6.23;5.50;;;;;;;20.73;80.56;99542.06;5073539;28;20395;-77
2021/07/13 06:27:39;;;;;;;7.15;4.78;;;;;;;20.65;79.72;99549.22;5074396;28;20473;-77
2021/07/13 06:30:06;;;;;;;6.27;5.67;;;;;;;20.57;79.83;99549.28;5073379;28;20890;-76
2021/07/13 06:32:31;;;;;;;6.65;6.05;;;;;;;20.49;80.84;99559.19;5074099;28;20892;-77
2021/07/13 06:34:57;;;;;;;5.13;4.73;;;;;;;20.42;79.45;99558.91;5074068;28;20479;-77
2021/07/13 06:37:22;;;;;;;4.90;4.60;;;;;;;20.39;80.63;99556.81;5073938;28;20450;-77
2021/07/13 06:39:48;;;;;;;4.40;4.10;;;;;;;20.31;80.57;99556.88;5073267;28;20415;-77
2021/07/13 06:42:13;;;;;;;4.77;4.37;;;;;;;20.30;81.04;99556.06;5074149;28;20400;-77
2021/07/13 06:44:38;;;;;;;4.33;4.00;;;;;;;20.30;81.06;99561.56;5073858;28;20870;-77
2021/07/13 06:47:04;;;;;;;3.43;3.23;;;;;;;20.19;80.64;99563.03;5072497;28;20396;-77
2021/07/13 06:49:29;;;;;;;3.37;3.27;;;;;;;20.15;79.56;99570.34;5073227;28;20763;-77
2021/07/13 06:51:54;;;;;;;3.70;3.40;;;;;;;20.10;80.01;99579.59;5069563;28;20456;-77
2021/07/13 06:54:19;;;;;;;3.17;2.97;;;;;;;20.02;80.81;99583.16;5073540;28;20391;-77
2021/07/13 06:56:45;;;;;;;2.70;2.50;;;;;;;20.01;80.53;99580.75;5072711;28;20403;-77
2021/07/13 06:59:10;;;;;;;2.77;2.67;;;;;;;19.94;80.90;99572.19;5071291;28;20408;-77
2021/07/13 07:01:35;;;;;;;7.37;2.80;;;;;;;19.95;81.56;99571.06;5073701;28;20402;-77
2021/07/13 07:04:01;;;;;;;3.27;3.00;;;;;;;19.93;81.29;99568.63;5073236;28;20594;-77
2021/07/13 07:06:27;;;;;;;2.50;2.30;;;;;;;19.93;81.36;99565.06;5072203;28;20495;-77
2021/07/13 07:08:52;;;;;;;2.30;2.00;;;;;;;19.94;80.68;99566.69;5037080;28;20437;-76
2021/07/13 07:11:17;;;;;;;6.07;2.53;;;;;;;19.84;81.19;99561.53;5072206;28;20450;-77
2021/07/13 07:13:43;;;;;;;2.58;2.08;;;;;;;19.82;82.02;99570.13;5072935;28;20411;-77
2021/07/13 07:16:08;;;;;;;2.70;2.50;;;;;;;19.84;80.98;99586.28;5073447;28;20402;-77
2021/07/13 07:18:34;;;;;;;3.37;2.40;;;;;;;19.85;81.94;99574.97;5066637;28;20414;-77
2021/07/13 07:20:59;;;;;;;2.13;2.10;;;;;;;19.88;81.12;99574.31;5073687;28;20419;-77
2021/07/13 07:23:24;;;;;;;2.10;2.00;;;;;;;19.88;81.52;99570.75;5055124;28;20396;-77
2021/07/13 07:25:49;;;;;;;2.50;1.97;;;;;;;19.85;80.74;99572.22;5068971;28;20412;-77
2021/07/13 07:28:15;;;;;;;1.77;1.77;;;;;;;19.84;81.26;99556.84;5068929;28;20893;-77
2021/07/13 07:30:40;;;;;;;1.50;1.40;;;;;;;19.80;80.85;99566.88;5071668;28;20395;-77
2021/07/13 07:33:06;;;;;;;1.30;1.30;;;;;;;19.81;80.30;99568.50;5065490;28;20773;-78
2021/07/13 07:35:32;;;;;;;2.03;1.60;;;;;;;19.84;80.06;99580.78;5052918;28;20431;-77
2021/07/13 07:37:58;;;;;;;1.85;1.33;;;;;;;19.82;80.57;99578.38;5055251;28;20464;-77
2021/07/13 07:40:24;;;;;;;1.38;1.38;;;;;;;19.83;80.22;99587.41;5072914;28;20887;-77
2021/07/13 07:42:54;;;;;;;2.15;1.30;;;;;;;19.79;80.40;99587.25;5069992;28;20413;-77
2021/07/13 07:45:21;;;;;;;1.52;1.48;;;;;;;19.76;80.53;99587.13;5073377;28;20405;-77
2021/07/13 07:47:47;;;;;;;1.00;1.00;;;;;;;19.70;80.53;99583.72;5067343;28;20411;-77
2021/07/13 07:50:14;;;;;;;1.40;1.30;;;;;;;19.66;80.76;99585.50;5072450;28;20408;-77
2021/07/13 07:52:39;;;;;;;1.00;1.00;;;;;;;19.58;80.91;99580.84;5072248;28;20398;-77
2021/07/13 07:55:06;;;;;;;1.20;0.60;;;;;;;19.50;80.91;99595.38;5072522;28;20479;-77
2021/07/13 07:57:32;;;;;;;1.17;0.50;;;;;;;19.35;81.09;99599.41;5072984;28;20399;-77
2021/07/13 07:59:57;;;;;;;0.50;0.40;;;;;;;19.28;80.97;99593.59;5053822;28;20775;-77
2021/07/13 08:02:22;;;;;;;1.00;0.37;;;;;;;19.30;80.69;99607.03;5072277;28;20470;-77
2021/07/13 08:04:48;;;;;;;0.40;0.37;;;;;;;19.09;80.97;99596.66;5072336;28;20399;-77
2021/07/13 08:07:13;;;;;;;0.30;0.30;;;;;;;19.01;81.31;99608.44;5071885;28;20412;-77
2021/07/13 08:09:38;;;;;;;5.83;0.43;;;;;;;18.93;80.60;99612.00;5072486;28;20790;-77
2021/07/13 08:12:04;;;;;;;4.00;0.30;;;;;;;18.95;80.61;99611.66;5072321;28;20400;-77
2021/07/13 08:14:29;;;;;;;0.60;0.30;;;;;;;18.95;79.80;99626.19;5071754;28;20407;-77
2021/07/13 08:16:56;;;;;;;1.00;0.40;;;;;;;18.83;79.42;99631.50;5072134;28;20392;-77
2021/07/13 08:19:22;;;;;;;1.17;0.20;;;;;;;18.87;78.35;99626.19;5069304;28;20411;-77
2021/07/13 08:21:48;;;;;;;1.50;0.40;;;;;;;18.83;79.50;99636.19;5072187;28;20878;-77
2021/07/13 08:24:13;;;;;;;0.93;0.20;;;;;;;18.72;79.62;99645.81;5072043;28;20400;-77
2021/07/13 08:26:39;;;;;;;1.10;0.30;;;;;;;18.74;78.97;99643.59;5070869;28;21783;-77
2021/07/13 08:29:04;;;;;;;0.20;0.20;;;;;;;18.65;79.18;99638.06;5071818;28;20406;-77
2021/07/13 08:31:30;;;;;;;0.23;0.23;;;;;;;18.57;78.93;99644.34;5071732;28;20399;-77
2021/07/13 08:33:56;;;;;;;0.60;0.40;;;;;;;18.58;77.59;99648.69;5070669;28;20901;-76
2021/07/13 08:36:21;;;;;;;1.63;0.20;;;;;;;18.63;78.75;99654.84;5071597;28;20412;-77
2021/07/13 08:38:47;;;;;;;0.20;0.20;;;;;;;18.59;78.22;99656.63;5065392;28;20450;-77
2021/07/13 08:41:12;;;;;;;1.60;0.30;;;;;;;18.57;77.82;99652.56;5071320;28;20487;-77
2021/07/13 08:43:37;;;;;;;0.93;0.43;;;;;;;18.54;77.23;99655.94;5071460;28;20407;-76
2021/07/13 08:46:03;;;;;;;0.30;0.30;;;;;;;18.41;76.61;99654.06;5072156;28;20468;-77
2021/07/13 08:48:29;;;;;;;0.50;0.50;;;;;;;18.37;77.31;99658.59;5070042;28;20411;-77
2021/07/13 08:50:55;;;;;;;1.20;0.60;;;;;;;18.29;78.90;99670.31;5071049;28;20403;-76
2021/07/13 08:53:21;;;;;;;0.60;0.60;;;;;;;18.36;78.72;99666.00;5069896;28;21023;-76
2021/07/13 08:55:46;;;;;;;0.47;0.47;;;;;;;18.49;78.42;99669.75;5070171;28;20415;-76
2021/07/13 08:58:14;;;;;;;3.30;0.87;;;;;;;18.52;78.18;99667.22;5067228;28;20740;-77
2021/07/13 09:00:40;;;;;;;0.77;0.77;;;;;;;18.48;77.74;99673.63;5066430;28;20875;-77
2021/07/13 09:03:11;;;;;;;15.88;13.90;;;;;;;18.36;78.11;99681.66;5044412;28;20401;-78
2021/07/13 09:05:54;;;;;;;0.43;0.43;;;;;;;18.33;78.82;99690.50;5053698;28;20404;-76
2021/07/13 09:08:25;;;;;;;0.60;0.60;;;;;;;18.39;79.03;99690.06;5071076;28;20420;-76
2021/07/13 09:11:11;;;;;;;0.77;0.40;;;;;;;18.36;78.02;99696.16;5070910;28;20421;-76
2021/07/13 09:13:59;;;;;;;0.70;0.45;;;;;;;18.26;78.41;99696.44;5070994;28;20510;-76
2021/07/13 09:16:27;;;;;;;0.60;0.55;;;;;;;18.17;77.51;99711.22;5069409;28;20411;-76
2021/07/13 09:18:57;;;;;;;0.50;0.50;;;;;;;18.09;77.95;99723.75;5070962;28;20494;-77
2021/07/13 09:21:35;;;;;;;1.20;0.60;;;;;;;18.15;78.05;99730.72;5052021;28;20491;-76
2021/07/13 09:24:15;;;;;;;1.50;0.70;;;;;;;18.14;77.88;99738.13;5070957;28;20539;-77
2021/07/13 09:26:49;;;;;;;0.70;0.70;;;;;;;18.04;77.58;99746.63;5068249;28;20403;-76
2021/07/13 09:29:32;;;;;;;1.20;0.50;;;;;;;18.04;78.69;99756.78;5070426;28;20513;-77
2021/07/13 09:32:25;;;;;;;0.50;0.50;;;;;;;17.89;78.67;99751.66;5064765;28;20403;-76
2021/07/13 09:34:51;;;;;;;0.90;0.90;;;;;;;17.86;79.04;99750.34;5049741;28;20781;-76
2021/07/13 09:37:20;;;;;;;1.98;1.88;;;;;;;17.91;79.34;99750.25;5071045;28;20399;-76
2021/07/13 09:40:00;;;;;;;1.03;0.77;;;;;;;17.88;79.33;99761.00;5070340;28;20914;-77
2021/07/13 09:42:27;;;;;;;1.13;1.02;;;;;;;17.83;80.51;99763.84;5065447;28;20409;-77
2021/07/13 09:44:53;;;;;;;1.93;0.70;;;;;;;17.81;80.22;99755.94;5048828;28;20759;-77
2021/07/13 09:47:30;;;;;;;0.90;0.60;;;;;;;17.79;80.15;99771.06;5071229;28;20403;-76
2021/07/13 09:49:58;;;;;;;0.45;0.45;;;;;;;17.85;79.91;99770.63;5069632;28;20387;-77
2021/07/13 09:52:25;;;;;;;1.00;0.47;;;;;;;17.81;80.76;99777.88;5067779;28;20403;-77
2021/07/13 09:54:50;;;;;;;4.60;0.70;;;;;;;17.86;80.83;99768.72;5073222;28;20405;-77
2021/07/13 09:57:18;;;;;;;0.50;0.40;;;;;;;17.79;81.80;99768.31;5071410;28;20391;-76
2021/07/13 09:59:45;;;;;;;0.40;0.40;;;;;;;17.88;81.27;99764.53;5038304;28;20421;-77
2021/07/13 10:02:11;;;;;;;1.50;0.55;;;;;;;18.01;81.72;99765.63;5073220;28;20942;-77
2021/07/13 10:04:39;;;;;;;0.30;0.30;;;;;;;18.04;80.66;99765.00;5075165;28;20431;-76
2021/07/13 10:07:12;;;;;;;0.73;0.20;;;;;;;17.96;81.70;99755.59;5073285;28;20415;-77
2021/07/13 10:09:48;;;;;;;1.95;0.40;;;;;;;18.04;80.23;99756.78;5064957;28;20890;-77
2021/07/13 10:12:18;;;;;;;2.53;0.43;;;;;;;17.93;81.20;99764.44;5073224;28;20395;-77
2021/07/13 10:14:46;;;;;;;1.50;0.32;;;;;;;17.80;82.45;99764.47;5073984;28;20391;-76
2021/07/13 10:17:13;;;;;;;0.20;0.20;;;;;;;17.79;80.71;99773.81;5074550;28;20454;-77
2021/07/13 10:19:45;;;;;;;0.20;0.20;;;;;;;17.78;80.57;99772.19;5073677;28;20872;-76
2021/07/13 10:22:12;;;;;;;0.27;0.23;;;;;;;17.80;81.24;99759.00;5071705;28;20464;-77
2021/07/13 10:24:38;;;;;;;2.13;0.43;;;;;;;17.82;81.43;99763.03;5064909;28;20856;-77
2021/07/13 10:27:11;;;;;;;0.45;0.30;;;;;;;17.84;80.82;99774.53;5071710;28;20893;-77
2021/07/13 10:29:37;;;;;;;1.35;0.30;;;;;;;17.71;80.84;99775.38;5067199;28;20403;-76
2021/07/13 10:32:07;;;;;;;0.38;0.30;;;;;;;17.67;81.16;99768.06;5073538;28;20473;-76
2021/07/13 10:34:53;;;;;;;0.82;0.57;;;;;;;17.68;81.65;99775.16;5073525;28;20419;-77
2021/07/13 10:37:26;;;;;;;0.35;0.35;;;;;;;17.64;81.57;99772.22;5073997;28;20407;-76
2021/07/13 10:39:54;;;;;;;2.30;0.38;;;;;;;17.74;80.86;99780.22;5073132;28;20438;-76
2021/07/13 10:42:43;;;;;;;0.60;0.28;;;;;;;17.72;80.56;99779.72;5073953;28;20407;-77
2021/07/13 10:45:13;;;;;;;0.80;0.50;;;;;;;17.71;80.17;99788.25;5074050;28;20396;-76
2021/07/13 10:47:57;;;;;;;0.40;0.40;;;;;;;17.62;81.24;99779.94;5073403;28;20878;-76
2021/07/13 10:50:22;;;;;;;1.13;0.45;;;;;;;17.77;81.73;99765.91;5073711;28;20490;-77
2021/07/13 10:53:06;;;;;;;2.40;0.50;;;;;;;17.80;81.92;99761.72;5073749;28;20483;-76
2021/07/13 10:55:31;;;;;;;0.65;0.40;;;;;;;17.73;82.69;99772.31;5055874;28;20498;-77
2021/07/13 10:58:09;;;;;;;0.20;0.20;;;;;;;17.78;80.06;99785.91;5072685;28;20490;-77
2021/07/13 11:01:07;;;;;;;0.50;0.50;;;;;;;17.87;80.78;99790.34;5073837;28;20399;-77
2021/07/13 11:03:33;;;;;;;0.40;0.40;;;;;;;17.80;81.79;99776.25;5052841;28;20403;-77
2021/07/13 11:06:00;;;;;;;0.40;0.37;;;;;;;17.71;81.96;99783.59;5069429;28;20422;-77
2021/07/13 11:11:10;;;;;;;0.30;0.20;;;;;;;17.77;80.06;99798.78;5073587;28;20400;-77
2021/07/13 11:13:36;;;;;;;0.70;0.22;;;;;;;17.68;80.94;99795.16;5055678;28;20471;-77
2021/07/13 11:16:02;;;;;;;1.08;0.45;;;;;;;17.81;80.43;99788.03;5067638;28;20412;-77
2021/07/13 11:18:36;;;;;;;0.70;0.40;;;;;;;17.75;80.91;99789.25;5065118;28;20534;-77
2021/07/13 11:21:19;;;;;;;0.40;0.40;;;;;;;17.72;81.12;99784.38;5073580;28;20396;-77
2021/07/13 11:23:49;;;;;;;0.60;0.30;;;;;;;17.79;81.34;99776.53;5066339;28;20874;-77
2021/07/13 11:26:16;;;;;;;2.08;0.50;;;;;;;17.86;81.10;99780.50;5067434;28;20743;-77
2021/07/13 11:28:45;;;;;;;0.50;0.40;;;;;;;17.96;80.41;99774.78;5064276;28;20763;-77
2021/07/13 11:31:19;;;;;;;0.80;0.45;;;;;;;18.09;80.75;99786.81;5073333;28;20550;-77
2021/07/13 11:34:02;;;;;;;1.00;0.50;;;;;;;18.06;80.11;99798.41;5072278;28;20898;-76
2021/07/13 11:36:34;;;;;;;0.50;0.40;;;;;;;18.05;79.61;99783.06;5073184;28;20525;-76
2021/07/13 11:39:04;;;;;;;0.45;0.45;;;;;;;17.98;79.87;99788.97;5073089;28;20801;-77